Maxwell, Virginia
Current Conditions -  °F | °C
As of 2:15 AM on Thursday 23 Oct 2014 (Local Time) from KMKJ Reporting Station
Overcast Overcast  
Wind Chill: 41°   Ceiling: 1600
Heat Index: 46°   Visibility: 10mi
Dew Point: 39°   Wind: 8mph
Humidity: 78%   Direction: 290°WNW
Pressure: 30.15"   Gusts: 17mph
Location:  37.0706°N, 81.5072°W
Report Text: KMKJ 230615Z AUTO 29007G15KT 10SM OVC016 08/04 A3015 RMK AO2 T00750038
Loading
Personal Weather Stations






























Interactive Weather Map
Tropical Storm Tracking
New forecast layout! Learn more

10-Day Weather Forecast

Advertisements
Track Severe Weather on mobile